KWRL/WRL METAR and TAF weather

Enter ICAO airport designator
Station Type Date Time Source
KWRL METAR 2018/12/13 08:53 UTC NOAA

KWRL 130853Z AUTO 17008KT 10SM CLR M11/M14 A3018 RMK AO2 SLP269 T11061139 51012


Station Type Date Time Source
KWRL Decoded METAR 2018/12/13 08:53 UTC NOAA

WORLAND MUNICIPAL AIRPORT, WY, United States (KWRL) 43-58N 107-57W 1271M
Dec 13, 2018 - 03:53 AM EST / 2018.12.13 0853 UTC
Wind: from the S (170 degrees) at 9 MPH (8 KT):0
Visibility: 10 mile(s):0
Sky conditions: clear
Temperature: 12.9 F (-10.6 C)
Windchill: 1 F (-17 C):1
Dew Point: 7.0 F (-13.9 C)
Relative Humidity: 76%
Pressure (altimeter): 30.18 in. Hg (1022 hPa)
Pressure tendency: 0.04 inches (1.2 hPa) higher than three hours ago
ob: KWRL 130853Z AUTO 17008KT 10SM CLR M11/M14 A3018 RMK AO2 SLP269 T11061139 51012
cycle: 9

Station Type Date Time Source
KWRL TAF 2018/12/13 06:28 UTC NOAA

TAF KWRL 130526Z 1306/1406 VRB05KT P6SM FEW090
FM131100 VRB05KT P6SM SKC
FM140100 VRB05KT P6SM FEW120 BKN200


Example: see airport list